sensor_id;sensor_type;location;lat;lon;timestamp;P1;durP1;ratioP1;P2;durP2;ratioP2
75526;SDS011;64107;49.248;7.006;2022-10-17T00:01:44;17.45;;;8.73;;
75526;SDS011;64107;49.248;7.006;2022-10-17T00:04:10;17.80;;;10.05;;
75526;SDS011;64107;49.248;7.006;2022-10-17T00:06:36;19.38;;;10.50;;
75526;SDS011;64107;49.248;7.006;2022-10-17T00:09:03;14.20;;;8.20;;
75526;SDS011;64107;49.248;7.006;2022-10-17T00:11:29;19.38;;;9.60;;
75526;SDS011;64107;49.248;7.006;2022-10-17T00:13:55;14.02;;;9.10;;
75526;SDS011;64107;49.248;7.006;2022-10-17T00:16:22;16.75;;;8.63;;
75526;SDS011;64107;49.248;7.006;2022-10-17T00:18:56;17.52;;;9.32;;
75526;SDS011;64107;49.248;7.006;2022-10-17T00:21:23;13.90;;;8.73;;
75526;SDS011;64107;49.248;7.006;2022-10-17T00:23:49;18.55;;;10.35;;
75526;SDS011;64107;49.248;7.006;2022-10-17T00:26:15;18.08;;;9.63;;
75526;SDS011;64107;49.248;7.006;2022-10-17T00:28:44;15.75;;;9.52;;
75526;SDS011;64107;49.248;7.006;2022-10-17T00:31:11;14.32;;;9.23;;
75526;SDS011;64107;49.248;7.006;2022-10-17T00:33:37;16.58;;;8.82;;
75526;SDS011;64107;49.248;7.006;2022-10-17T00:36:04;20.27;;;9.20;;
75526;SDS011;64107;49.248;7.006;2022-10-17T00:38:37;22.83;;;9.77;;
75526;SDS011;64107;49.248;7.006;2022-10-17T00:41:03;21.98;;;9.73;;
75526;SDS011;64107;49.248;7.006;2022-10-17T00:46:26;18.25;;;9.05;;
75526;SDS011;64107;49.248;7.006;2022-10-17T00:48:54;17.45;;;8.52;;
75526;SDS011;64107;49.248;7.006;2022-10-17T00:51:26;13.85;;;8.68;;
75526;SDS011;64107;49.248;7.006;2022-10-17T00:53:58;21.02;;;9.40;;
75526;SDS011;64107;49.248;7.006;2022-10-17T00:56:24;14.90;;;7.82;;
75526;SDS011;64107;49.248;7.006;2022-10-17T00:58:51;14.70;;;8.48;;
75526;SDS011;64107;49.248;7.006;2022-10-17T01:01:17;15.65;;;8.48;;
75526;SDS011;64107;49.248;7.006;2022-10-17T01:03:43;15.30;;;8.75;;
75526;SDS011;64107;49.248;7.006;2022-10-17T01:06:09;19.75;;;8.80;;
75526;SDS011;64107;49.248;7.006;2022-10-17T01:08:35;16.70;;;7.93;;
75526;SDS011;64107;49.248;7.006;2022-10-17T01:13:54;12.82;;;8.35;;
75526;SDS011;64107;49.248;7.006;2022-10-17T01:24:32;11.43;;;7.20;;
75526;SDS011;64107;49.248;7.006;2022-10-17T01:32:22;14.98;;;7.78;;
75526;SDS011;64107;49.248;7.006;2022-10-17T01:35:08;17.60;;;8.13;;
75526;SDS011;64107;49.248;7.006;2022-10-17T01:38:08;18.05;;;8.13;;
75526;SDS011;64107;49.248;7.006;2022-10-17T01:40:57;15.77;;;7.68;;
75526;SDS011;64107;49.248;7.006;2022-10-17T01:43:46;9.20;;;6.70;;
75526;SDS011;64107;49.248;7.006;2022-10-17T01:46:24;13.68;;;6.85;;
75526;SDS011;64107;49.248;7.006;2022-10-17T01:49:00;11.05;;;5.50;;
75526;SDS011;64107;49.248;7.006;2022-10-17T01:51:47;12.00;;;5.70;;
75526;SDS011;64107;49.248;7.006;2022-10-17T01:56:45;8.25;;;5.03;;
75526;SDS011;64107;49.248;7.006;2022-10-17T01:59:14;10.60;;;5.22;;
75526;SDS011;64107;49.248;7.006;2022-10-17T02:01:46;8.57;;;4.85;;
75526;SDS011;64107;49.248;7.006;2022-10-17T02:04:13;7.50;;;4.25;;
75526;SDS011;64107;49.248;7.006;2022-10-17T02:06:40;5.45;;;4.47;;
75526;SDS011;64107;49.248;7.006;2022-10-17T02:09:17;9.38;;;4.82;;
75526;SDS011;64107;49.248;7.006;2022-10-17T02:12:01;6.63;;;3.78;;
75526;SDS011;64107;49.248;7.006;2022-10-17T02:17:26;6.38;;;3.70;;
75526;SDS011;64107;49.248;7.006;2022-10-17T02:22:47;6.68;;;3.45;;
75526;SDS011;64107;49.248;7.006;2022-10-17T02:25:30;6.70;;;4.10;;
75526;SDS011;64107;49.248;7.006;2022-10-17T02:28:00;6.65;;;3.83;;
75526;SDS011;64107;49.248;7.006;2022-10-17T02:30:48;7.20;;;3.53;;
75526;SDS011;64107;49.248;7.006;2022-10-17T02:36:14;4.70;;;3.28;;
75526;SDS011;64107;49.248;7.006;2022-10-17T02:38:46;6.13;;;3.85;;
75526;SDS011;64107;49.248;7.006;2022-10-17T02:41:16;5.20;;;3.72;;
75526;SDS011;64107;49.248;7.006;2022-10-17T02:43:43;9.88;;;3.80;;
75526;SDS011;64107;49.248;7.006;2022-10-17T02:46:15;5.80;;;3.88;;
75526;SDS011;64107;49.248;7.006;2022-10-17T02:53:52;6.43;;;4.05;;
75526;SDS011;64107;49.248;7.006;2022-10-17T02:56:41;7.78;;;3.90;;
75526;SDS011;64107;49.248;7.006;2022-10-17T02:59:12;6.28;;;3.75;;
75526;SDS011;64107;49.248;7.006;2022-10-17T03:01:39;9.10;;;4.20;;
75526;SDS011;64107;49.248;7.006;2022-10-17T03:04:06;11.82;;;4.30;;
75526;SDS011;64107;49.248;7.006;2022-10-17T03:06:34;6.80;;;4.35;;
75526;SDS011;64107;49.248;7.006;2022-10-17T03:09:00;5.38;;;3.67;;
75526;SDS011;64107;49.248;7.006;2022-10-17T03:11:26;6.65;;;3.95;;
75526;SDS011;64107;49.248;7.006;2022-10-17T03:13:52;6.90;;;3.20;;
75526;SDS011;64107;49.248;7.006;2022-10-17T03:16:18;5.60;;;3.97;;
75526;SDS011;64107;49.248;7.006;2022-10-17T03:18:44;9.00;;;3.92;;
75526;SDS011;64107;49.248;7.006;2022-10-17T03:21:10;5.60;;;3.13;;
75526;SDS011;64107;49.248;7.006;2022-10-17T03:23:36;6.03;;;3.05;;
75526;SDS011;64107;49.248;7.006;2022-10-17T03:26:03;3.90;;;3.10;;
75526;SDS011;64107;49.248;7.006;2022-10-17T03:28:29;4.18;;;3.60;;
75526;SDS011;64107;49.248;7.006;2022-10-17T03:30:55;5.80;;;3.60;;
75526;SDS011;64107;49.248;7.006;2022-10-17T03:33:21;5.45;;;3.03;;
75526;SDS011;64107;49.248;7.006;2022-10-17T03:35:47;5.13;;;3.85;;
75526;SDS011;64107;49.248;7.006;2022-10-17T03:38:14;5.90;;;4.00;;
75526;SDS011;64107;49.248;7.006;2022-10-17T03:40:40;8.15;;;3.08;;
75526;SDS011;64107;49.248;7.006;2022-10-17T03:43:06;7.32;;;3.05;;
75526;SDS011;64107;49.248;7.006;2022-10-17T03:45:32;6.57;;;3.35;;
75526;SDS011;64107;49.248;7.006;2022-10-17T03:47:58;4.60;;;3.20;;
75526;SDS011;64107;49.248;7.006;2022-10-17T03:50:24;6.35;;;2.97;;
75526;SDS011;64107;49.248;7.006;2022-10-17T03:52:50;7.28;;;3.30;;
75526;SDS011;64107;49.248;7.006;2022-10-17T03:55:16;6.05;;;3.50;;
75526;SDS011;64107;49.248;7.006;2022-10-17T03:57:43;8.63;;;3.75;;
75526;SDS011;64107;49.248;7.006;2022-10-17T04:00:09;5.35;;;3.67;;
75526;SDS011;64107;49.248;7.006;2022-10-17T04:02:35;4.05;;;2.92;;
75526;SDS011;64107;49.248;7.006;2022-10-17T04:05:01;7.25;;;3.65;;
75526;SDS011;64107;49.248;7.006;2022-10-17T04:07:28;7.97;;;3.90;;
75526;SDS011;64107;49.248;7.006;2022-10-17T04:09:54;5.40;;;2.88;;
75526;SDS011;64107;49.248;7.006;2022-10-17T04:12:20;4.97;;;3.20;;
75526;SDS011;64107;49.248;7.006;2022-10-17T04:14:46;9.27;;;3.13;;
75526;SDS011;64107;49.248;7.006;2022-10-17T04:17:12;7.40;;;3.30;;
75526;SDS011;64107;49.248;7.006;2022-10-17T04:19:38;5.13;;;3.78;;
75526;SDS011;64107;49.248;7.006;2022-10-17T04:22:04;3.97;;;3.30;;
75526;SDS011;64107;49.248;7.006;2022-10-17T04:24:32;4.13;;;3.53;;
75526;SDS011;64107;49.248;7.006;2022-10-17T04:26:58;4.50;;;3.70;;
75526;SDS011;64107;49.248;7.006;2022-10-17T04:29:24;4.22;;;3.50;;
75526;SDS011;64107;49.248;7.006;2022-10-17T04:31:51;5.95;;;3.92;;
75526;SDS011;64107;49.248;7.006;2022-10-17T04:34:17;7.10;;;3.53;;
75526;SDS011;64107;49.248;7.006;2022-10-17T04:36:43;5.03;;;3.92;;
75526;SDS011;64107;49.248;7.006;2022-10-17T04:39:11;8.45;;;4.45;;
75526;SDS011;64107;49.248;7.006;2022-10-17T04:41:37;6.68;;;4.25;;
75526;SDS011;64107;49.248;7.006;2022-10-17T04:44:03;9.48;;;4.20;;
75526;SDS011;64107;49.248;7.006;2022-10-17T04:46:29;8.10;;;3.88;;
75526;SDS011;64107;49.248;7.006;2022-10-17T04:48:57;5.78;;;4.05;;
75526;SDS011;64107;49.248;7.006;2022-10-17T04:51:23;5.07;;;3.85;;
75526;SDS011;64107;49.248;7.006;2022-10-17T04:53:49;4.65;;;4.10;;
75526;SDS011;64107;49.248;7.006;2022-10-17T04:56:16;5.32;;;4.15;;
75526;SDS011;64107;49.248;7.006;2022-10-17T04:58:43;7.45;;;4.10;;
75526;SDS011;64107;49.248;7.006;2022-10-17T05:01:11;7.13;;;3.70;;
75526;SDS011;64107;49.248;7.006;2022-10-17T05:03:38;6.65;;;3.75;;
75526;SDS011;64107;49.248;7.006;2022-10-17T05:06:05;10.65;;;4.57;;
75526;SDS011;64107;49.248;7.006;2022-10-17T05:08:33;9.02;;;3.78;;
75526;SDS011;64107;49.248;7.006;2022-10-17T05:11:00;6.03;;;3.60;;
75526;SDS011;64107;49.248;7.006;2022-10-17T05:13:26;6.88;;;3.75;;
75526;SDS011;64107;49.248;7.006;2022-10-17T05:15:52;7.80;;;4.85;;
75526;SDS011;64107;49.248;7.006;2022-10-17T05:18:22;5.68;;;3.22;;
75526;SDS011;64107;49.248;7.006;2022-10-17T05:20:48;6.15;;;3.55;;
75526;SDS011;64107;49.248;7.006;2022-10-17T05:23:14;6.57;;;3.78;;
75526;SDS011;64107;49.248;7.006;2022-10-17T05:25:40;5.85;;;3.90;;
75526;SDS011;64107;49.248;7.006;2022-10-17T05:28:06;8.02;;;3.55;;
75526;SDS011;64107;49.248;7.006;2022-10-17T05:30:33;7.00;;;4.38;;
75526;SDS011;64107;49.248;7.006;2022-10-17T05:33:00;8.48;;;4.80;;
75526;SDS011;64107;49.248;7.006;2022-10-17T05:35:26;8.48;;;4.25;;
75526;SDS011;64107;49.248;7.006;2022-10-17T05:37:52;9.20;;;4.70;;
75526;SDS011;64107;49.248;7.006;2022-10-17T05:40:18;6.82;;;4.15;;
75526;SDS011;64107;49.248;7.006;2022-10-17T05:42:45;6.28;;;3.60;;
75526;SDS011;64107;49.248;7.006;2022-10-17T05:45:12;5.72;;;4.25;;
75526;SDS011;64107;49.248;7.006;2022-10-17T05:47:39;5.93;;;4.13;;
75526;SDS011;64107;49.248;7.006;2022-10-17T05:50:05;9.32;;;4.18;;
75526;SDS011;64107;49.248;7.006;2022-10-17T05:52:32;7.50;;;3.63;;
75526;SDS011;64107;49.248;7.006;2022-10-17T05:54:58;6.43;;;3.92;;
75526;SDS011;64107;49.248;7.006;2022-10-17T05:57:24;8.07;;;3.95;;
75526;SDS011;64107;49.248;7.006;2022-10-17T05:59:50;7.45;;;3.88;;
75526;SDS011;64107;49.248;7.006;2022-10-17T06:02:16;5.78;;;4.03;;
75526;SDS011;64107;49.248;7.006;2022-10-17T06:04:43;11.60;;;5.07;;
75526;SDS011;64107;49.248;7.006;2022-10-17T06:07:13;8.52;;;5.55;;
75526;SDS011;64107;49.248;7.006;2022-10-17T06:09:39;7.78;;;4.40;;
75526;SDS011;64107;49.248;7.006;2022-10-17T06:12:06;6.15;;;3.95;;
75526;SDS011;64107;49.248;7.006;2022-10-17T06:14:35;10.75;;;4.85;;
75526;SDS011;64107;49.248;7.006;2022-10-17T06:17:01;8.95;;;4.65;;
75526;SDS011;64107;49.248;7.006;2022-10-17T06:19:27;7.53;;;4.20;;
75526;SDS011;64107;49.248;7.006;2022-10-17T06:21:53;4.72;;;3.38;;
75526;SDS011;64107;49.248;7.006;2022-10-17T06:24:19;7.13;;;3.42;;
75526;SDS011;64107;49.248;7.006;2022-10-17T06:26:45;4.72;;;4.15;;
75526;SDS011;64107;49.248;7.006;2022-10-17T06:29:13;4.97;;;3.13;;
75526;SDS011;64107;49.248;7.006;2022-10-17T06:31:40;6.03;;;4.57;;
75526;SDS011;64107;49.248;7.006;2022-10-17T06:34:06;6.22;;;3.70;;
75526;SDS011;64107;49.248;7.006;2022-10-17T06:36:32;7.93;;;4.05;;
75526;SDS011;64107;49.248;7.006;2022-10-17T06:38:58;6.57;;;5.18;;
75526;SDS011;64107;49.248;7.006;2022-10-17T06:41:24;11.80;;;4.60;;
75526;SDS011;64107;49.248;7.006;2022-10-17T06:43:50;9.05;;;4.30;;
75526;SDS011;64107;49.248;7.006;2022-10-17T06:46:17;4.72;;;3.70;;
75526;SDS011;64107;49.248;7.006;2022-10-17T06:48:43;6.53;;;3.70;;
75526;SDS011;64107;49.248;7.006;2022-10-17T06:51:10;8.60;;;3.35;;
75526;SDS011;64107;49.248;7.006;2022-10-17T06:53:36;8.35;;;4.65;;
75526;SDS011;64107;49.248;7.006;2022-10-17T06:56:03;10.38;;;4.20;;
75526;SDS011;64107;49.248;7.006;2022-10-17T06:58:31;8.95;;;4.13;;
75526;SDS011;64107;49.248;7.006;2022-10-17T07:01:01;7.03;;;3.33;;
75526;SDS011;64107;49.248;7.006;2022-10-17T07:03:31;4.60;;;3.33;;
75526;SDS011;64107;49.248;7.006;2022-10-17T07:05:57;8.63;;;3.72;;
75526;SDS011;64107;49.248;7.006;2022-10-17T07:08:23;3.50;;;3.15;;
75526;SDS011;64107;49.248;7.006;2022-10-17T07:10:50;7.38;;;3.88;;
75526;SDS011;64107;49.248;7.006;2022-10-17T07:13:16;10.75;;;5.10;;
75526;SDS011;64107;49.248;7.006;2022-10-17T07:15:43;7.82;;;3.60;;
75526;SDS011;64107;49.248;7.006;2022-10-17T07:18:09;6.10;;;3.53;;
75526;SDS011;64107;49.248;7.006;2022-10-17T07:20:36;4.30;;;3.38;;
75526;SDS011;64107;49.248;7.006;2022-10-17T07:23:02;5.78;;;3.63;;
75526;SDS011;64107;49.248;7.006;2022-10-17T07:25:28;10.88;;;2.95;;
75526;SDS011;64107;49.248;7.006;2022-10-17T07:27:54;6.47;;;2.70;;
75526;SDS011;64107;49.248;7.006;2022-10-17T07:30:20;5.60;;;2.83;;
75526;SDS011;64107;49.248;7.006;2022-10-17T07:32:47;7.63;;;3.28;;
75526;SDS011;64107;49.248;7.006;2022-10-17T07:35:13;6.57;;;3.67;;
75526;SDS011;64107;49.248;7.006;2022-10-17T07:37:39;5.60;;;2.97;;
75526;SDS011;64107;49.248;7.006;2022-10-17T07:40:06;6.30;;;3.50;;
75526;SDS011;64107;49.248;7.006;2022-10-17T07:42:35;3.67;;;2.45;;
75526;SDS011;64107;49.248;7.006;2022-10-17T07:45:01;7.95;;;3.85;;
75526;SDS011;64107;49.248;7.006;2022-10-17T07:47:28;4.63;;;2.92;;
75526;SDS011;64107;49.248;7.006;2022-10-17T07:49:55;6.72;;;2.78;;
75526;SDS011;64107;49.248;7.006;2022-10-17T07:52:21;4.82;;;2.90;;
75526;SDS011;64107;49.248;7.006;2022-10-17T07:54:47;4.72;;;2.75;;
75526;SDS011;64107;49.248;7.006;2022-10-17T07:57:14;4.10;;;2.35;;
75526;SDS011;64107;49.248;7.006;2022-10-17T07:59:40;3.88;;;2.92;;
75526;SDS011;64107;49.248;7.006;2022-10-17T08:02:08;7.40;;;2.30;;
75526;SDS011;64107;49.248;7.006;2022-10-17T08:04:42;5.35;;;2.75;;
75526;SDS011;64107;49.248;7.006;2022-10-17T08:07:08;5.00;;;2.83;;
75526;SDS011;64107;49.248;7.006;2022-10-17T08:09:34;8.68;;;2.55;;
75526;SDS011;64107;49.248;7.006;2022-10-17T08:12:01;3.47;;;2.45;;
75526;SDS011;64107;49.248;7.006;2022-10-17T08:14:27;3.65;;;2.20;;
75526;SDS011;64107;49.248;7.006;2022-10-17T08:16:53;4.95;;;2.35;;
75526;SDS011;64107;49.248;7.006;2022-10-17T08:19:19;2.58;;;2.22;;
75526;SDS011;64107;49.248;7.006;2022-10-17T08:21:49;7.97;;;3.00;;
75526;SDS011;64107;49.248;7.006;2022-10-17T08:24:16;3.80;;;2.70;;
75526;SDS011;64107;49.248;7.006;2022-10-17T08:26:42;8.35;;;2.08;;
75526;SDS011;64107;49.248;7.006;2022-10-17T08:29:12;4.63;;;2.33;;
75526;SDS011;64107;49.248;7.006;2022-10-17T08:31:38;2.95;;;1.83;;
75526;SDS011;64107;49.248;7.006;2022-10-17T08:34:05;4.25;;;1.48;;
75526;SDS011;64107;49.248;7.006;2022-10-17T08:36:31;3.35;;;1.83;;
75526;SDS011;64107;49.248;7.006;2022-10-17T08:38:57;4.85;;;1.98;;
75526;SDS011;64107;49.248;7.006;2022-10-17T08:46:31;2.75;;;2.00;;
75526;SDS011;64107;49.248;7.006;2022-10-17T08:49:00;4.03;;;2.20;;
75526;SDS011;64107;49.248;7.006;2022-10-17T08:51:30;9.35;;;1.60;;
75526;SDS011;64107;49.248;7.006;2022-10-17T08:54:14;4.07;;;1.80;;
75526;SDS011;64107;49.248;7.006;2022-10-17T08:56:55;3.65;;;2.17;;
75526;SDS011;64107;49.248;7.006;2022-10-17T08:59:23;4.55;;;2.08;;
75526;SDS011;64107;49.248;7.006;2022-10-17T09:02:02;2.97;;;1.90;;
75526;SDS011;64107;49.248;7.006;2022-10-17T09:07:15;1.67;;;1.42;;
75526;SDS011;64107;49.248;7.006;2022-10-17T09:09:54;3.05;;;1.90;;
75526;SDS011;64107;49.248;7.006;2022-10-17T09:18:01;5.60;;;1.85;;
75526;SDS011;64107;49.248;7.006;2022-10-17T09:20:31;1.83;;;1.48;;
75526;SDS011;64107;49.248;7.006;2022-10-17T09:23:07;1.42;;;1.30;;
75526;SDS011;64107;49.248;7.006;2022-10-17T09:25:45;3.40;;;1.27;;
75526;SDS011;64107;49.248;7.006;2022-10-17T09:28:20;2.35;;;1.83;;
75526;SDS011;64107;49.248;7.006;2022-10-17T09:30:58;4.05;;;1.52;;
75526;SDS011;64107;49.248;7.006;2022-10-17T09:33:38;2.60;;;1.83;;
75526;SDS011;64107;49.248;7.006;2022-10-17T09:36:17;2.08;;;1.88;;
75526;SDS011;64107;49.248;7.006;2022-10-17T09:38:52;3.00;;;2.15;;
75526;SDS011;64107;49.248;7.006;2022-10-17T09:41:21;3.10;;;1.40;;
75526;SDS011;64107;49.248;7.006;2022-10-17T09:43:54;4.10;;;2.33;;
75526;SDS011;64107;49.248;7.006;2022-10-17T09:46:36;3.17;;;2.03;;
75526;SDS011;64107;49.248;7.006;2022-10-17T09:49:09;4.25;;;2.30;;
75526;SDS011;64107;49.248;7.006;2022-10-17T09:51:39;2.90;;;1.73;;
75526;SDS011;64107;49.248;7.006;2022-10-17T09:54:10;2.60;;;1.83;;
75526;SDS011;64107;49.248;7.006;2022-10-17T09:57:07;1.73;;;1.30;;
75526;SDS011;64107;49.248;7.006;2022-10-17T09:59:38;2.65;;;1.67;;
75526;SDS011;64107;49.248;7.006;2022-10-17T10:02:16;1.75;;;1.50;;
75526;SDS011;64107;49.248;7.006;2022-10-17T10:04:50;2.75;;;1.25;;
75526;SDS011;64107;49.248;7.006;2022-10-17T10:07:21;3.45;;;1.88;;
75526;SDS011;64107;49.248;7.006;2022-10-17T10:09:49;2.35;;;1.88;;
75526;SDS011;64107;49.248;7.006;2022-10-17T10:14:46;3.42;;;1.80;;
75526;SDS011;64107;49.248;7.006;2022-10-17T10:17:57;4.60;;;2.05;;
75526;SDS011;64107;49.248;7.006;2022-10-17T10:20:23;2.08;;;1.88;;
75526;SDS011;64107;49.248;7.006;2022-10-17T10:23:16;3.67;;;1.75;;
75526;SDS011;64107;49.248;7.006;2022-10-17T10:25:52;3.25;;;1.33;;
75526;SDS011;64107;49.248;7.006;2022-10-17T10:28:22;2.53;;;1.95;;
75526;SDS011;64107;49.248;7.006;2022-10-17T10:30:58;2.17;;;1.88;;
75526;SDS011;64107;49.248;7.006;2022-10-17T10:33:29;1.95;;;1.70;;
75526;SDS011;64107;49.248;7.006;2022-10-17T10:36:02;1.95;;;1.60;;
75526;SDS011;64107;49.248;7.006;2022-10-17T10:40:56;4.07;;;2.17;;
75526;SDS011;64107;49.248;7.006;2022-10-17T10:43:44;4.07;;;1.67;;
75526;SDS011;64107;49.248;7.006;2022-10-17T10:51:24;3.55;;;2.10;;
75526;SDS011;64107;49.248;7.006;2022-10-17T10:57:11;3.10;;;1.67;;
75526;SDS011;64107;49.248;7.006;2022-10-17T11:00:18;2.85;;;1.95;;
75526;SDS011;64107;49.248;7.006;2022-10-17T11:07:55;1.65;;;1.55;;
75526;SDS011;64107;49.248;7.006;2022-10-17T11:10:50;4.85;;;1.90;;
75526;SDS011;64107;49.248;7.006;2022-10-17T11:13:18;1.63;;;1.35;;
75526;SDS011;64107;49.248;7.006;2022-10-17T11:16:58;4.05;;;1.85;;
75526;SDS011;64107;49.248;7.006;2022-10-17T11:18:54;3.20;;;1.98;;
75526;SDS011;64107;49.248;7.006;2022-10-17T11:21:32;3.20;;;1.88;;
75526;SDS011;64107;49.248;7.006;2022-10-17T11:24:08;5.07;;;1.90;;
75526;SDS011;64107;49.248;7.006;2022-10-17T11:26:46;3.40;;;2.10;;
75526;SDS011;64107;49.248;7.006;2022-10-17T11:29:24;1.90;;;1.20;;
75526;SDS011;64107;49.248;7.006;2022-10-17T11:31:54;1.83;;;1.30;;
75526;SDS011;64107;49.248;7.006;2022-10-17T11:34:24;6.43;;;1.70;;
75526;SDS011;64107;49.248;7.006;2022-10-17T11:36:53;4.13;;;1.80;;
75526;SDS011;64107;49.248;7.006;2022-10-17T11:40:09;2.42;;;2.15;;
75526;SDS011;64107;49.248;7.006;2022-10-17T11:42:26;1.58;;;1.48;;
75526;SDS011;64107;49.248;7.006;2022-10-17T11:44:57;6.57;;;2.03;;
75526;SDS011;64107;49.248;7.006;2022-10-17T11:47:44;4.57;;;1.50;;
75526;SDS011;64107;49.248;7.006;2022-10-17T11:50:18;4.13;;;1.77;;
75526;SDS011;64107;49.248;7.006;2022-10-17T11:52:47;3.90;;;1.88;;
75526;SDS011;64107;49.248;7.006;2022-10-17T11:55:23;2.92;;;1.90;;
75526;SDS011;64107;49.248;7.006;2022-10-17T11:58:11;2.20;;;1.50;;
75526;SDS011;64107;49.248;7.006;2022-10-17T12:03:51;4.55;;;2.10;;
75526;SDS011;64107;49.248;7.006;2022-10-17T12:12:50;5.70;;;1.88;;
75526;SDS011;64107;49.248;7.006;2022-10-17T12:17:55;4.97;;;2.03;;
75526;SDS011;64107;49.248;7.006;2022-10-17T12:20:24;2.22;;;1.88;;
75526;SDS011;64107;49.248;7.006;2022-10-17T12:22:52;2.80;;;1.67;;
75526;SDS011;64107;49.248;7.006;2022-10-17T12:25:24;4.70;;;2.17;;
75526;SDS011;64107;49.248;7.006;2022-10-17T12:28:10;3.20;;;2.22;;
75526;SDS011;64107;49.248;7.006;2022-10-17T12:31:00;3.92;;;2.25;;
75526;SDS011;64107;49.248;7.006;2022-10-17T12:33:47;5.18;;;1.85;;
75526;SDS011;64107;49.248;7.006;2022-10-17T13:00:17;5.13;;;2.10;;
75526;SDS011;64107;49.248;7.006;2022-10-17T13:02:44;2.85;;;1.73;;
75526;SDS011;64107;49.248;7.006;2022-10-17T13:05:13;2.45;;;1.52;;
75526;SDS011;64107;49.248;7.006;2022-10-17T13:07:54;2.53;;;1.88;;
75526;SDS011;64107;49.248;7.006;2022-10-17T13:10:23;4.57;;;1.50;;
75526;SDS011;64107;49.248;7.006;2022-10-17T13:12:59;3.05;;;1.85;;
75526;SDS011;64107;49.248;7.006;2022-10-17T13:15:58;1.80;;;0.95;;
75526;SDS011;64107;49.248;7.006;2022-10-17T13:18:25;3.03;;;1.80;;
75526;SDS011;64107;49.248;7.006;2022-10-17T13:20:53;5.60;;;2.08;;
75526;SDS011;64107;49.248;7.006;2022-10-17T13:23:31;7.53;;;1.63;;
75526;SDS011;64107;49.248;7.006;2022-10-17T13:26:18;4.40;;;1.80;;
75526;SDS011;64107;49.248;7.006;2022-10-17T13:29:31;4.90;;;1.88;;
75526;SDS011;64107;49.248;7.006;2022-10-17T13:31:40;1.88;;;1.50;;
75526;SDS011;64107;49.248;7.006;2022-10-17T13:34:18;3.88;;;2.95;;
75526;SDS011;64107;49.248;7.006;2022-10-17T13:36:52;3.05;;;2.22;;
75526;SDS011;64107;49.248;7.006;2022-10-17T13:39:21;4.80;;;1.70;;
75526;SDS011;64107;49.248;7.006;2022-10-17T13:41:50;4.10;;;1.98;;
75526;SDS011;64107;49.248;7.006;2022-10-17T13:44:19;3.92;;;2.15;;
75526;SDS011;64107;49.248;7.006;2022-10-17T13:46:46;2.83;;;1.30;;
75526;SDS011;64107;49.248;7.006;2022-10-17T13:49:20;3.45;;;2.22;;
75526;SDS011;64107;49.248;7.006;2022-10-17T13:52:05;3.03;;;2.03;;
75526;SDS011;64107;49.248;7.006;2022-10-17T13:54:39;5.55;;;2.08;;
75526;SDS011;64107;49.248;7.006;2022-10-17T13:57:26;1.40;;;1.30;;
75526;SDS011;64107;49.248;7.006;2022-10-17T13:59:56;2.55;;;1.70;;
75526;SDS011;64107;49.248;7.006;2022-10-17T14:02:25;3.50;;;1.90;;
75526;SDS011;64107;49.248;7.006;2022-10-17T14:04:59;4.63;;;1.83;;
75526;SDS011;64107;49.248;7.006;2022-10-17T14:07:35;3.60;;;1.65;;
75526;SDS011;64107;49.248;7.006;2022-10-17T14:10:06;4.60;;;1.83;;
75526;SDS011;64107;49.248;7.006;2022-10-17T14:12:42;3.08;;;1.52;;
75526;SDS011;64107;49.248;7.006;2022-10-17T14:15:08;2.35;;;1.63;;
75526;SDS011;64107;49.248;7.006;2022-10-17T14:17:38;2.97;;;1.55;;
75526;SDS011;64107;49.248;7.006;2022-10-17T14:20:05;3.40;;;1.65;;
75526;SDS011;64107;49.248;7.006;2022-10-17T14:22:34;3.00;;;1.95;;
75526;SDS011;64107;49.248;7.006;2022-10-17T14:25:02;4.88;;;2.15;;
75526;SDS011;64107;49.248;7.006;2022-10-17T14:27:30;4.35;;;1.95;;
75526;SDS011;64107;49.248;7.006;2022-10-17T14:32:52;3.67;;;2.10;;
75526;SDS011;64107;49.248;7.006;2022-10-17T14:35:20;4.28;;;1.70;;
75526;SDS011;64107;49.248;7.006;2022-10-17T14:37:47;4.15;;;2.10;;
75526;SDS011;64107;49.248;7.006;2022-10-17T14:40:16;4.28;;;1.73;;
75526;SDS011;64107;49.248;7.006;2022-10-17T14:42:47;3.70;;;2.00;;
75526;SDS011;64107;49.248;7.006;2022-10-17T14:45:18;2.58;;;2.00;;
75526;SDS011;64107;49.248;7.006;2022-10-17T14:47:47;3.67;;;1.90;;
75526;SDS011;64107;49.248;7.006;2022-10-17T14:52:58;8.98;;;2.40;;
75526;SDS011;64107;49.248;7.006;2022-10-17T14:55:25;3.35;;;1.90;;
75526;SDS011;64107;49.248;7.006;2022-10-17T14:57:52;3.97;;;2.72;;
75526;SDS011;64107;49.248;7.006;2022-10-17T15:00:19;6.55;;;2.03;;
75526;SDS011;64107;49.248;7.006;2022-10-17T15:02:46;3.83;;;1.90;;
75526;SDS011;64107;49.248;7.006;2022-10-17T15:05:13;6.68;;;2.38;;
75526;SDS011;64107;49.248;7.006;2022-10-17T15:07:40;4.18;;;2.60;;
75526;SDS011;64107;49.248;7.006;2022-10-17T15:12:57;4.20;;;1.90;;
75526;SDS011;64107;49.248;7.006;2022-10-17T15:15:24;3.85;;;2.00;;
75526;SDS011;64107;49.248;7.006;2022-10-17T15:17:54;3.28;;;2.30;;
75526;SDS011;64107;49.248;7.006;2022-10-17T15:20:20;3.65;;;2.25;;
75526;SDS011;64107;49.248;7.006;2022-10-17T15:22:50;6.78;;;2.40;;
75526;SDS011;64107;49.248;7.006;2022-10-17T15:25:17;3.30;;;2.10;;
75526;SDS011;64107;49.248;7.006;2022-10-17T15:27:43;3.63;;;2.15;;
75526;SDS011;64107;49.248;7.006;2022-10-17T15:30:14;5.63;;;3.38;;
75526;SDS011;64107;49.248;7.006;2022-10-17T15:32:48;4.97;;;2.53;;
75526;SDS011;64107;49.248;7.006;2022-10-17T15:35:14;4.80;;;2.47;;
75526;SDS011;64107;49.248;7.006;2022-10-17T15:37:41;4.55;;;2.10;;
75526;SDS011;64107;49.248;7.006;2022-10-17T15:40:09;5.20;;;2.70;;
75526;SDS011;64107;49.248;7.006;2022-10-17T15:42:39;8.70;;;2.83;;
75526;SDS011;64107;49.248;7.006;2022-10-17T15:45:05;3.53;;;2.30;;
75526;SDS011;64107;49.248;7.006;2022-10-17T15:47:33;5.60;;;2.90;;
75526;SDS011;64107;49.248;7.006;2022-10-17T15:49:59;4.53;;;2.55;;
75526;SDS011;64107;49.248;7.006;2022-10-17T15:52:25;5.13;;;2.63;;
75526;SDS011;64107;49.248;7.006;2022-10-17T15:54:52;5.65;;;2.65;;
75526;SDS011;64107;49.248;7.006;2022-10-17T15:57:20;4.75;;;2.55;;
75526;SDS011;64107;49.248;7.006;2022-10-17T15:59:49;5.05;;;2.22;;
75526;SDS011;64107;49.248;7.006;2022-10-17T16:02:16;7.25;;;2.92;;
75526;SDS011;64107;49.248;7.006;2022-10-17T16:04:46;4.68;;;2.65;;
75526;SDS011;64107;49.248;7.006;2022-10-17T16:07:12;7.70;;;2.70;;
75526;SDS011;64107;49.248;7.006;2022-10-17T16:09:38;7.07;;;2.70;;
75526;SDS011;64107;49.248;7.006;2022-10-17T16:12:05;6.68;;;4.25;;
75526;SDS011;64107;49.248;7.006;2022-10-17T16:14:35;6.22;;;3.33;;
75526;SDS011;64107;49.248;7.006;2022-10-17T16:17:01;7.07;;;3.20;;
75526;SDS011;64107;49.248;7.006;2022-10-17T16:19:27;7.88;;;3.90;;
75526;SDS011;64107;49.248;7.006;2022-10-17T16:21:54;9.55;;;4.22;;
75526;SDS011;64107;49.248;7.006;2022-10-17T16:24:21;8.38;;;4.03;;
75526;SDS011;64107;49.248;7.006;2022-10-17T16:26:48;7.40;;;3.60;;
75526;SDS011;64107;49.248;7.006;2022-10-17T16:29:14;7.57;;;4.03;;
75526;SDS011;64107;49.248;7.006;2022-10-17T16:31:41;9.57;;;3.70;;
75526;SDS011;64107;49.248;7.006;2022-10-17T16:34:09;7.63;;;4.00;;
75526;SDS011;64107;49.248;7.006;2022-10-17T16:36:37;6.55;;;3.55;;
75526;SDS011;64107;49.248;7.006;2022-10-17T16:39:03;7.82;;;3.80;;
75526;SDS011;64107;49.248;7.006;2022-10-17T16:41:31;7.65;;;3.35;;
75526;SDS011;64107;49.248;7.006;2022-10-17T16:43:59;8.20;;;3.85;;
75526;SDS011;64107;49.248;7.006;2022-10-17T16:46:30;8.13;;;3.53;;
75526;SDS011;64107;49.248;7.006;2022-10-17T16:48:57;7.63;;;3.83;;
75526;SDS011;64107;49.248;7.006;2022-10-17T16:51:24;6.53;;;4.10;;
75526;SDS011;64107;49.248;7.006;2022-10-17T16:53:50;7.25;;;4.72;;
75526;SDS011;64107;49.248;7.006;2022-10-17T16:56:22;12.48;;;3.90;;